Time;durP1;ratioP1;P1;durP2;ratioP2;P2;SDS_P1;SDS_P2;PMS_P1;PMS_P2;Temp;Humidity;BMP_temperature;BMP_pressure;BME280_temperature;BME280_humidity;BME280_pressure;Samples;Min_cycle;Max_cycle;Signal;HPM_P1;HPM_P2
2024/03/04 00:01:52;;;;;;;8.00;4.05;;;;;;;-140.81;100.00;62400.31;5027961;28;19939;-49
2024/03/04 00:04:18;;;;;;;10.05;3.70;;;;;;;-140.81;100.00;62400.31;5061040;28;20072;-47
2024/03/04 00:06:46;;;;;;;12.98;4.90;;;;;;;-140.81;100.00;62400.31;5011956;28;20077;-48
2024/03/04 00:09:12;;;;;;;10.63;4.60;;;;;;;-140.81;100.00;62400.31;5027520;28;20071;-47
2024/03/04 00:11:44;;;;;;;16.95;4.75;;;;;;;-140.81;100.00;62400.31;5021796;28;20048;-47
2024/03/04 00:14:11;;;;;;;11.20;3.83;;;;;;;-140.81;100.00;62400.31;5022075;28;20065;-49
2024/03/04 00:16:42;;;;;;;12.20;3.80;;;;;;;-140.81;100.00;62400.31;5029224;28;20068;-50
2024/03/04 00:19:09;;;;;;;15.75;4.95;;;;;;;-140.81;100.00;62400.31;5028539;28;20033;-51
2024/03/04 00:21:37;;;;;;;10.60;4.40;;;;;;;-140.81;100.00;62400.31;5044613;28;20037;-48
2024/03/04 00:24:06;;;;;;;15.30;4.63;;;;;;;-140.81;100.00;62400.31;5025777;28;20132;-48
2024/03/04 00:26:32;;;;;;;11.43;3.95;;;;;;;-140.81;100.00;62400.31;4975657;28;20042;-53
2024/03/04 00:28:58;;;;;;;14.82;4.80;;;;;;;-140.81;100.00;62400.31;5017945;28;20045;-51
2024/03/04 00:31:25;;;;;;;14.82;4.38;;;;;;;-140.81;100.00;62400.31;5024039;28;20041;-50
2024/03/04 00:33:52;;;;;;;13.27;4.45;;;;;;;-140.81;100.00;62400.31;4975402;28;20046;-46
2024/03/04 00:36:23;;;;;;;9.27;4.70;;;;;;;-140.81;100.00;62400.31;4991059;28;20038;-54
2024/03/04 00:38:51;;;;;;;14.95;4.95;;;;;;;-140.81;100.00;62400.31;5015173;28;20428;-48
2024/03/04 00:41:24;;;;;;;7.63;4.15;;;;;;;-140.81;100.00;62400.31;5060414;28;20041;-46
2024/03/04 00:44:00;;;;;;;13.45;4.18;;;;;;;-140.81;100.00;62400.31;5026936;28;20505;-47
2024/03/04 00:46:27;;;;;;;9.95;3.85;;;;;;;-140.81;100.00;62400.31;5026861;28;20043;-51
2024/03/04 00:48:56;;;;;;;11.90;4.45;;;;;;;-140.81;100.00;62400.31;5027365;28;20053;-52
2024/03/04 00:51:28;;;;;;;9.03;4.37;;;;;;;-140.81;100.00;62400.31;5058803;28;20055;-50
2024/03/04 00:53:54;;;;;;;8.57;4.05;;;;;;;-140.81;100.00;62400.31;5028213;28;20107;-53
2024/03/04 00:56:21;;;;;;;10.73;5.68;;;;;;;-140.81;100.00;62400.31;5028253;28;20033;-48
2024/03/04 00:58:53;;;;;;;11.77;4.15;;;;;;;-140.81;100.00;62400.31;5042916;28;20140;-48
2024/03/04 01:01:19;;;;;;;9.93;4.60;;;;;;;-140.81;100.00;62400.31;5058744;28;20103;-49
2024/03/04 01:03:45;;;;;;;13.05;5.20;;;;;;;-140.81;100.00;62400.31;5011030;28;20276;-48
2024/03/04 01:06:12;;;;;;;11.70;4.32;;;;;;;-140.81;100.00;62400.31;5043635;28;20531;-53
2024/03/04 01:08:44;;;;;;;11.60;4.72;;;;;;;-140.81;100.00;62400.31;5026286;28;20037;-46
2024/03/04 01:11:10;;;;;;;17.00;5.15;;;;;;;-140.81;100.00;62400.31;5006811;28;20038;-48
2024/03/04 01:13:37;;;;;;;7.35;4.15;;;;;;;-140.81;100.00;62400.31;5008792;28;20034;-51
2024/03/04 01:16:04;;;;;;;13.77;5.80;;;;;;;-140.81;100.00;62400.31;5058203;28;20127;-49
2024/03/04 01:18:31;;;;;;;15.73;6.05;;;;;;;-140.81;100.00;62400.31;5041202;28;20053;-48
2024/03/04 01:21:03;;;;;;;13.15;5.40;;;;;;;-140.81;100.00;62400.31;5009619;28;20037;-49
2024/03/04 01:23:30;;;;;;;11.38;5.38;;;;;;;-140.81;100.00;62400.31;5027375;28;20048;-52
2024/03/04 01:25:57;;;;;;;10.30;4.50;;;;;;;-140.81;100.00;62400.31;5009483;28;20041;-50
2024/03/04 01:28:24;;;;;;;12.13;5.00;;;;;;;-140.81;100.00;62400.31;5009912;28;20845;-47
2024/03/04 01:30:50;;;;;;;16.80;4.97;;;;;;;-140.81;100.00;62400.31;5027119;28;20045;-52
2024/03/04 01:33:17;;;;;;;11.30;4.75;;;;;;;-140.81;100.00;62400.31;5026368;28;20127;-53
2024/03/04 01:35:46;;;;;;;11.73;4.82;;;;;;;-140.81;100.00;62400.31;5026427;28;20128;-51
2024/03/04 01:38:12;;;;;;;10.52;4.70;;;;;;;-140.81;100.00;62400.31;5026475;28;20087;-50
2024/03/04 01:40:38;;;;;;;11.75;4.75;;;;;;;-140.81;100.00;62400.31;5026586;28;20130;-48
2024/03/04 01:43:06;;;;;;;11.77;5.05;;;;;;;-140.81;100.00;62400.31;5009990;28;20029;-50
2024/03/04 01:45:35;;;;;;;11.23;4.85;;;;;;;-140.81;100.00;62400.31;5027241;28;20508;-53
2024/03/04 01:48:03;;;;;;;10.63;5.18;;;;;;;-140.81;100.00;62400.31;5027423;28;20037;-49
2024/03/04 01:50:40;;;;;;;13.95;5.30;;;;;;;-140.81;100.00;62400.31;5025699;28;20468;-52
2024/03/04 01:53:07;;;;;;;13.68;5.10;;;;;;;-140.81;100.00;62400.31;5009565;28;20088;-52
2024/03/04 01:55:42;;;;;;;11.05;5.13;;;;;;;-140.81;100.00;62400.31;5025937;28;20502;-50
2024/03/04 01:58:11;;;;;;;13.88;5.38;;;;;;;-140.81;100.00;62400.31;4997727;28;20049;-48
2024/03/04 02:00:42;;;;;;;18.87;5.83;;;;;;;-140.81;100.00;62400.31;5013332;28;20146;-50
2024/03/04 02:03:11;;;;;;;12.77;5.70;;;;;;;-140.81;100.00;62400.31;5007483;28;20588;-47
2024/03/04 02:05:39;;;;;;;18.52;6.15;;;;;;;-140.81;100.00;62400.31;5022774;28;20069;-47
2024/03/04 02:08:09;;;;;;;14.32;6.57;;;;;;;-140.81;100.00;62400.31;5007373;28;20532;-52
2024/03/04 02:10:36;;;;;;;19.17;6.18;;;;;;;-140.81;100.00;62400.31;5021180;28;20150;-49
2024/03/04 02:13:03;;;;;;;17.63;5.82;;;;;;;-140.81;100.00;62400.31;5007308;28;20081;-47
2024/03/04 02:15:34;;;;;;;12.00;5.65;;;;;;;-140.81;100.00;62400.31;5042033;28;20045;-51
2024/03/04 02:18:02;;;;;;;20.17;5.93;;;;;;;-140.81;100.00;62400.31;5026083;28;20041;-49
2024/03/04 02:20:42;;;;;;;16.15;6.18;;;;;;;-140.81;100.00;62400.31;5008955;28;20044;-47
2024/03/04 02:23:11;;;;;;;17.67;6.13;;;;;;;-140.81;100.00;62400.31;5026845;28;20075;-50
2024/03/04 02:25:56;;;;;;;13.40;5.07;;;;;;;-140.81;100.00;62400.31;5041263;28;20041;-53
2024/03/04 02:28:26;;;;;;;14.60;5.78;;;;;;;-140.81;100.00;62400.31;5026192;28;20091;-52
2024/03/04 02:30:52;;;;;;;;;;;;;;;-140.81;100.00;62400.31;5009307;28;20152;-48
2024/03/04 02:33:22;;;;;;;13.80;5.80;;;;;;;-140.81;100.00;62400.31;5025606;28;19932;-49
2024/03/04 02:35:53;;;;;;;16.90;5.95;;;;;;;-140.81;100.00;62400.31;5025874;28;20383;-49
2024/03/04 02:38:20;;;;;;;14.43;5.90;;;;;;;-140.81;100.00;62400.31;5025807;28;20041;-50
2024/03/04 02:40:50;;;;;;;15.15;6.93;;;;;;;-140.81;100.00;62400.31;5024875;28;20047;-50
2024/03/04 02:43:18;;;;;;;17.00;5.90;;;;;;;-140.81;100.00;62400.31;5025439;28;20087;-51
2024/03/04 02:45:44;;;;;;;15.82;6.15;;;;;;;-140.81;100.00;62400.31;5025596;28;20111;-47
2024/03/04 02:48:10;;;;;;;11.95;4.85;;;;;;;-140.81;100.00;62400.31;5026373;28;20045;-49
2024/03/04 02:50:38;;;;;;;12.90;5.50;;;;;;;-140.81;100.00;62400.31;5007715;28;20092;-51
2024/03/04 02:53:05;;;;;;;16.13;6.70;;;;;;;-140.81;100.00;62400.31;5040983;28;20041;-49
2024/03/04 02:55:32;;;;;;;18.90;6.70;;;;;;;-140.81;100.00;62400.31;5025265;28;20744;-51
2024/03/04 02:57:58;;;;;;;18.10;6.90;;;;;;;-140.81;100.00;62400.31;5041583;28;20037;-52
2024/03/04 03:00:27;;;;;;;15.50;6.53;;;;;;;-140.81;100.00;62400.31;5025705;28;20044;-49
2024/03/04 03:02:54;;;;;;;;;;;;;;;-140.81;100.00;62400.31;5025058;28;20636;-47
2024/03/04 03:05:20;;;;;;;10.57;5.03;;;;;;;-140.81;100.00;62400.31;5028267;28;19917;-51
2024/03/04 03:07:47;;;;;;;13.35;6.15;;;;;;;-140.81;100.00;62400.31;5031225;28;20067;-50
2024/03/04 03:10:13;;;;;;;12.20;5.60;;;;;;;-140.81;100.00;62400.31;5014300;28;20044;-50
2024/03/04 03:12:40;;;;;;;16.85;6.13;;;;;;;-140.81;100.00;62400.31;5030210;28;20045;-52
2024/03/04 03:15:07;;;;;;;17.10;5.90;;;;;;;-140.81;100.00;62400.31;5013986;28;20048;-50
2024/03/04 03:17:37;;;;;;;20.23;6.25;;;;;;;-140.81;100.00;62400.31;5064602;28;20080;-51
2024/03/04 03:20:37;;;;;;;14.98;5.75;;;;;;;-140.81;100.00;62400.31;5010751;28;20083;-50
2024/03/04 03:22:57;;;;;;;15.32;5.47;;;;;;;-140.81;100.00;62400.31;5026066;28;20697;-45
2024/03/04 03:25:24;;;;;;;14.23;5.22;;;;;;;-140.81;100.00;62400.31;5031376;28;20036;-53
2024/03/04 03:27:50;;;;;;;12.52;5.40;;;;;;;-140.81;100.00;62400.31;5032398;28;20136;-51
2024/03/04 03:30:17;;;;;;;15.93;5.38;;;;;;;-140.81;100.00;62400.31;5030530;28;20040;-47
2024/03/04 03:32:44;;;;;;;14.60;5.85;;;;;;;-140.81;100.00;62400.31;5032372;28;20049;-51
2024/03/04 03:35:11;;;;;;;16.48;5.57;;;;;;;-140.81;100.00;62400.31;5031514;28;20122;-53
2024/03/04 03:37:37;;;;;;;13.32;5.03;;;;;;;-140.81;100.00;62400.31;5033038;28;20037;-49
2024/03/04 03:40:05;;;;;;;15.65;5.63;;;;;;;-140.81;100.00;62400.31;5030344;28;20040;-53
2024/03/04 03:42:33;;;;;;;13.50;5.57;;;;;;;-140.81;100.00;62400.31;5032290;28;20033;-48
2024/03/04 03:45:02;;;;;;;16.80;6.03;;;;;;;-140.81;100.00;62400.31;5014410;28;20048;-51
2024/03/04 03:47:32;;;;;;;13.55;5.47;;;;;;;-140.81;100.00;62400.31;5032756;28;20044;-52
2024/03/04 03:50:00;;;;;;;15.57;5.50;;;;;;;-140.81;100.00;62400.31;5032161;28;20079;-49
2024/03/04 03:52:31;;;;;;;15.50;5.55;;;;;;;-140.81;100.00;62400.31;5046605;28;20047;-49
2024/03/04 03:54:58;;;;;;;12.45;5.50;;;;;;;-140.81;100.00;62400.31;5031370;28;20481;-55
2024/03/04 03:57:25;;;;;;;14.40;5.63;;;;;;;-140.81;100.00;62400.31;5032756;28;20542;-52
2024/03/04 03:59:52;;;;;;;20.35;5.70;;;;;;;-140.81;100.00;62400.31;5031139;28;20052;-50
2024/03/04 04:02:19;;;;;;;16.50;6.22;;;;;;;-140.81;100.00;62400.31;5032561;28;20449;-49
2024/03/04 04:04:46;;;;;;;14.23;6.25;;;;;;;-140.81;100.00;62400.31;5051500;28;20123;-49
2024/03/04 04:07:12;;;;;;;20.42;6.35;;;;;;;-140.81;100.00;62400.31;5052105;28;20052;-47
2024/03/04 04:09:39;;;;;;;12.57;5.20;;;;;;;-140.81;100.00;62400.31;5002024;28;20533;-52
2024/03/04 04:12:08;;;;;;;15.77;5.53;;;;;;;-140.81;100.00;62400.31;5027179;28;20056;-50
2024/03/04 04:14:35;;;;;;;17.60;6.45;;;;;;;-140.81;100.00;62400.31;5030688;28;20069;-51
2024/03/04 04:17:05;;;;;;;11.77;5.25;;;;;;;-140.81;100.00;62400.31;5027607;28;20128;-50
2024/03/04 04:19:34;;;;;;;16.65;6.60;;;;;;;-140.81;100.00;62400.31;5027830;28;20034;-53
2024/03/04 04:22:00;;;;;;;15.43;5.80;;;;;;;-140.81;100.00;62400.31;5011188;28;20037;-48
2024/03/04 04:24:27;;;;;;;16.67;6.20;;;;;;;-140.81;100.00;62400.31;5010809;28;20307;-51
2024/03/04 04:26:53;;;;;;;13.18;5.38;;;;;;;-140.81;100.00;62400.31;5044283;28;20132;-52
2024/03/04 04:29:20;;;;;;;18.63;6.85;;;;;;;-140.81;100.00;62400.31;5027806;28;20144;-47
2024/03/04 04:31:49;;;;;;;18.77;5.82;;;;;;;-140.81;100.00;62400.31;5010598;28;20068;-51
2024/03/04 04:34:15;;;;;;;12.52;6.32;;;;;;;-140.81;100.00;62400.31;5035898;28;20076;-48
2024/03/04 04:36:49;;;;;;;14.40;6.53;;;;;;;-140.81;100.00;62400.31;4998136;28;20098;-52
2024/03/04 04:39:16;;;;;;;22.50;5.97;;;;;;;-140.81;100.00;62400.31;5048578;28;20044;-52
2024/03/04 04:41:43;;;;;;;18.30;6.07;;;;;;;-140.81;100.00;62400.31;5016601;28;20513;-47
2024/03/04 04:44:09;;;;;;;14.38;5.90;;;;;;;-140.81;100.00;62400.31;5015716;28;20117;-50
2024/03/04 04:46:39;;;;;;;16.92;6.05;;;;;;;-140.81;100.00;62400.31;5038058;28;20045;-46
2024/03/04 04:49:05;;;;;;;13.18;5.22;;;;;;;-140.81;100.00;62400.31;5028317;28;20071;-50
2024/03/04 04:51:32;;;;;;;14.20;5.75;;;;;;;-140.81;100.00;62400.31;5042207;28;20034;-49
2024/03/04 04:53:58;;;;;;;15.38;6.00;;;;;;;-140.81;100.00;62400.31;5009962;28;20068;-47
2024/03/04 04:56:24;;;;;;;19.65;7.43;;;;;;;-140.81;100.00;62400.31;5025547;28;20553;-50
2024/03/04 04:58:50;;;;;;;14.02;5.80;;;;;;;-140.81;100.00;62400.31;5026407;28;20075;-45
2024/03/04 05:01:29;;;;;;;17.52;6.90;;;;;;;-140.81;100.00;62400.31;5041432;28;20155;-51
2024/03/04 05:03:55;;;;;;;13.38;6.57;;;;;;;-140.81;100.00;62400.31;5022777;28;20069;-48
2024/03/04 05:06:21;;;;;;;14.10;6.93;;;;;;;-140.81;100.00;62400.31;5024215;28;20428;-49
2024/03/04 05:08:48;;;;;;;16.98;5.97;;;;;;;-140.81;100.00;62400.31;5042319;28;20041;-49
2024/03/04 05:11:15;;;;;;;13.98;4.80;;;;;;;-140.81;100.00;62400.31;5023743;28;20037;-46
2024/03/04 05:13:41;;;;;;;14.35;5.63;;;;;;;-140.81;100.00;62400.31;5024374;28;20822;-49
2024/03/04 05:16:09;;;;;;;13.55;6.00;;;;;;;-140.81;100.00;62400.31;5025061;28;20041;-57
2024/03/04 05:18:37;;;;;;;11.23;5.68;;;;;;;-140.81;100.00;62400.31;5026783;28;20529;-51
2024/03/04 05:21:04;;;;;;;12.87;4.93;;;;;;;-140.81;100.00;62400.31;5025865;28;20564;-50
2024/03/04 05:23:30;;;;;;;12.15;4.97;;;;;;;-140.81;100.00;62400.31;5026602;28;20292;-50
2024/03/04 05:25:56;;;;;;;11.68;4.88;;;;;;;-140.81;100.00;62400.31;5008729;28;20505;-49
2024/03/04 05:28:25;;;;;;;14.15;5.03;;;;;;;-140.81;100.00;62400.31;5008782;28;20052;-47
2024/03/04 05:30:52;;;;;;;11.30;5.15;;;;;;;-140.81;100.00;62400.31;5025588;28;20048;-47
2024/03/04 05:33:19;;;;;;;13.45;5.55;;;;;;;-140.81;100.00;62400.31;5009088;28;20187;-48
2024/03/04 05:35:46;;;;;;;9.65;4.43;;;;;;;-140.81;100.00;62400.31;5058263;28;20077;-52
2024/03/04 05:38:12;;;;;;;13.40;5.40;;;;;;;-140.81;100.00;62400.31;4993147;28;20038;-50
2024/03/04 05:40:38;;;;;;;15.57;5.50;;;;;;;-140.81;100.00;62400.31;5025412;28;20474;-51
2024/03/04 05:43:05;;;;;;;9.95;4.68;;;;;;;-140.81;100.00;62400.31;5026112;28;20041;-51
2024/03/04 05:45:31;;;;;;;11.65;5.05;;;;;;;-140.81;100.00;62400.31;5008742;28;20489;-53
2024/03/04 05:47:57;;;;;;;11.43;5.03;;;;;;;-140.81;100.00;62400.31;5008039;28;20131;-53
2024/03/04 05:50:23;;;;;;;14.93;5.30;;;;;;;-140.81;100.00;62400.31;5025799;28;20120;-48
2024/03/04 05:52:49;;;;;;;13.95;5.20;;;;;;;-140.81;100.00;62400.31;5022579;28;20042;-53
2024/03/04 05:55:19;;;;;;;12.70;5.55;;;;;;;-140.81;100.00;62400.31;5006616;28;20042;-57
2024/03/04 05:57:46;;;;;;;12.55;5.13;;;;;;;-140.81;100.00;62400.31;5020976;28;20064;-53
2024/03/04 06:00:14;;;;;;;11.70;4.68;;;;;;;-140.81;100.00;62400.31;5026759;28;20037;-53
2024/03/04 06:02:44;;;;;;;14.88;5.50;;;;;;;-140.81;100.00;62400.31;5024774;28;20099;-52
2024/03/04 06:05:11;;;;;;;13.25;5.40;;;;;;;-140.81;100.00;62400.31;5026823;28;20051;-56
2024/03/04 06:07:37;;;;;;;12.23;5.15;;;;;;;-140.81;100.00;62400.31;5005350;28;20065;-54
2024/03/04 06:10:04;;;;;;;13.07;5.30;;;;;;;-140.81;100.00;62400.31;5019816;28;20076;-54
2024/03/04 06:12:31;;;;;;;11.68;5.32;;;;;;;-140.81;100.00;62400.31;5005787;28;20106;-54
2024/03/04 06:14:57;;;;;;;13.18;5.63;;;;;;;-140.81;100.00;62400.31;5039879;28;20033;-54
2024/03/04 06:17:23;;;;;;;10.18;4.72;;;;;;;-140.81;100.00;62400.31;5004365;28;20583;-56
2024/03/04 06:19:49;;;;;;;12.98;5.10;;;;;;;-140.81;100.00;62400.31;5005238;28;20069;-51
2024/03/04 06:22:16;;;;;;;11.30;4.85;;;;;;;-140.81;100.00;62400.31;5005443;28;20038;-53
2024/03/04 06:24:42;;;;;;;11.20;5.93;;;;;;;-140.81;100.00;62400.31;5025111;28;20044;-52
2024/03/04 06:27:09;;;;;;;17.40;4.90;;;;;;;-140.81;100.00;62400.31;5008684;28;20160;-58
2024/03/04 06:29:35;;;;;;;10.60;5.13;;;;;;;-140.81;100.00;62400.31;5008052;28;20049;-54
2024/03/04 06:32:02;;;;;;;17.60;5.50;;;;;;;-140.81;100.00;62400.31;5015362;28;20042;-55
2024/03/04 06:34:30;;;;;;;12.35;5.22;;;;;;;-140.81;100.00;62400.31;5025496;28;20037;-56
2024/03/04 06:36:57;;;;;;;13.13;5.57;;;;;;;-140.81;100.00;62400.31;5026253;28;20052;-50
2024/03/04 06:39:25;;;;;;;10.98;4.63;;;;;;;-140.81;100.00;62400.31;5007735;28;20124;-62
2024/03/04 06:41:54;;;;;;;12.13;4.85;;;;;;;-140.81;100.00;62400.31;5024630;28;20045;-61
2024/03/04 06:44:21;;;;;;;10.63;5.05;;;;;;;-140.81;100.00;62400.31;4999173;28;20103;-62
2024/03/04 06:46:48;;;;;;;14.48;4.30;;;;;;;-140.81;100.00;62400.31;5004094;28;20064;-62
2024/03/04 06:49:16;;;;;;;10.10;4.57;;;;;;;-140.81;100.00;62400.31;5004101;28;20045;-61
2024/03/04 06:51:42;;;;;;;11.18;4.03;;;;;;;-140.81;100.00;62400.31;5040875;28;20122;-60
2024/03/04 06:54:14;;;;;;;9.40;4.18;;;;;;;-140.81;100.00;62400.31;5040613;28;20061;-60
2024/03/04 06:56:44;;;;;;;8.90;3.90;;;;;;;-140.81;100.00;62400.31;5023890;28;20191;-62
2024/03/04 06:59:10;;;;;;;14.40;4.72;;;;;;;-140.81;100.00;62400.31;5024843;28;20041;-61
2024/03/04 07:01:40;;;;;;;10.63;4.57;;;;;;;-140.81;100.00;62400.31;5026085;28;20191;-61
2024/03/04 07:04:07;;;;;;;13.10;5.53;;;;;;;-140.81;100.00;62400.31;5024334;28;20399;-61
2024/03/04 07:06:34;;;;;;;11.45;4.47;;;;;;;-140.81;100.00;62400.31;5020197;28;20041;-62
2024/03/04 07:09:01;;;;;;;10.38;4.63;;;;;;;-140.81;100.00;62400.31;5040884;28;20069;-60
2024/03/04 07:11:30;;;;;;;17.02;4.47;;;;;;;-140.81;100.00;62400.31;5018755;28;20037;-60
2024/03/04 07:13:57;;;;;;;20.52;8.85;;;;;;;-140.81;100.00;62400.31;5029179;28;20079;-60
2024/03/04 07:16:23;;;;;;;11.55;5.18;;;;;;;-140.81;100.00;62400.31;4998943;28;20359;-62
2024/03/04 07:18:52;;;;;;;8.35;4.75;;;;;;;-140.81;100.00;62400.31;5030917;28;20037;-62
2024/03/04 07:21:21;;;;;;;8.98;4.93;;;;;;;-140.81;100.00;62400.31;5040554;28;20132;-62
2024/03/04 07:23:48;;;;;;;12.13;5.45;;;;;;;-140.81;100.00;62400.31;5023810;28;20132;-63
2024/03/04 07:26:14;;;;;;;13.20;5.20;;;;;;;-140.81;100.00;62400.31;5007625;28;20103;-62
2024/03/04 07:28:41;;;;;;;10.18;5.05;;;;;;;-140.81;100.00;62400.31;5024047;28;20045;-63
2024/03/04 07:31:08;;;;;;;12.30;4.93;;;;;;;-140.81;100.00;62400.31;5024089;28;20041;-61
2024/03/04 07:33:35;;;;;;;13.73;5.25;;;;;;;-140.81;100.00;62400.31;5034935;28;20137;-61
2024/03/04 07:36:02;;;;;;;13.02;5.30;;;;;;;-140.81;100.00;62400.31;5004474;28;20157;-65
2024/03/04 07:38:28;;;;;;;11.90;5.38;;;;;;;-140.81;100.00;62400.31;5044642;28;20059;-52
2024/03/04 07:40:54;;;;;;;11.35;4.78;;;;;;;-140.81;100.00;62400.31;5044254;28;20029;-58
2024/03/04 07:43:20;;;;;;;12.38;5.25;;;;;;;-140.81;100.00;62400.31;5043704;28;20044;-59
2024/03/04 07:45:46;;;;;;;13.57;5.43;;;;;;;-140.81;100.00;62400.31;5037345;28;20049;-56
2024/03/04 07:48:13;;;;;;;16.00;5.85;;;;;;;-140.81;100.00;62400.31;4975546;28;20041;-61
2024/03/04 07:50:38;;;;;;;14.00;5.07;;;;;;;-140.81;100.00;62400.31;5023365;28;20692;-59
2024/03/04 07:53:04;;;;;;;9.10;5.18;;;;;;;-140.81;100.00;62400.31;5026815;28;20061;-59
2024/03/04 07:55:30;;;;;;;11.00;4.97;;;;;;;-140.81;100.00;62400.31;5028498;28;20051;-61
2024/03/04 07:57:56;;;;;;;12.18;4.85;;;;;;;-140.81;100.00;62400.31;5027248;28;20037;-59
2024/03/04 08:00:22;;;;;;;13.85;5.18;;;;;;;-140.81;100.00;62400.31;5029097;28;20107;-62
2024/03/04 08:02:49;;;;;;;15.88;5.03;;;;;;;-140.81;100.00;62400.31;5028593;28;20041;-61
2024/03/04 08:05:15;;;;;;;11.98;4.78;;;;;;;-140.81;100.00;62400.31;5028198;28;20068;-62
2024/03/04 08:07:41;;;;;;;13.77;5.00;;;;;;;-140.81;100.00;62400.31;5026986;28;20539;-62
2024/03/04 08:10:08;;;;;;;11.93;4.50;;;;;;;-140.81;100.00;62400.31;5060654;28;20045;-67
2024/03/04 08:12:35;;;;;;;11.15;4.85;;;;;;;-140.81;100.00;62400.31;5027225;28;20052;-67
2024/03/04 08:15:03;;;;;;;13.38;5.20;;;;;;;-140.81;100.00;62400.31;5026910;28;20057;-67
2024/03/04 08:17:32;;;;;;;7.30;3.95;;;;;;;-140.81;100.00;62400.31;5028336;28;20425;-69
2024/03/04 08:19:59;;;;;;;13.52;4.90;;;;;;;-140.81;100.00;62400.31;5022344;28;20160;-64
2024/03/04 08:22:25;;;;;;;10.55;4.90;;;;;;;-140.81;100.00;62400.31;5059911;28;20042;-67
2024/03/04 08:24:52;;;;;;;10.95;4.55;;;;;;;-140.81;100.00;62400.31;5027730;28;20037;-66
2024/03/04 08:27:19;;;;;;;8.70;4.72;;;;;;;-140.81;100.00;62400.31;5059863;28;20523;-65
2024/03/04 08:29:48;;;;;;;11.50;4.72;;;;;;;-140.81;100.00;62400.31;5027733;28;20053;-68
2024/03/04 08:32:14;;;;;;;11.38;4.72;;;;;;;-140.81;100.00;62400.31;5010181;28;20417;-69
2024/03/04 08:34:40;;;;;;;11.93;4.80;;;;;;;-140.81;100.00;62400.31;5027077;28;20037;-65
2024/03/04 08:37:05;;;;;;;10.32;4.78;;;;;;;-140.81;100.00;62400.31;5027148;28;20037;-67
2024/03/04 08:39:31;;;;;;;14.75;4.95;;;;;;;-140.81;100.00;62400.31;5043287;28;20417;-66
2024/03/04 08:41:57;;;;;;;11.25;5.72;;;;;;;-140.81;100.00;62400.31;5028397;28;20049;-65
2024/03/04 08:44:24;;;;;;;11.57;6.22;;;;;;;-140.81;100.00;62400.31;5027754;28;20037;-61
2024/03/04 08:46:50;;;;;;;9.13;5.05;;;;;;;-140.81;100.00;62400.31;5028027;28;20047;-63
2024/03/04 08:49:16;;;;;;;17.90;5.30;;;;;;;-140.81;100.00;62400.31;5027418;28;20061;-61
2024/03/04 08:51:43;;;;;;;9.15;4.97;;;;;;;-140.81;100.00;62400.31;5016647;28;20163;-63
2024/03/04 08:54:10;;;;;;;8.40;4.15;;;;;;;-140.81;100.00;62400.31;5026937;28;20061;-65
2024/03/04 08:56:36;;;;;;;7.60;4.30;;;;;;;-140.81;100.00;62400.31;5027998;28;20577;-61
2024/03/04 08:59:05;;;;;;;10.95;4.93;;;;;;;-140.81;100.00;62400.31;5042970;28;20103;-62
2024/03/04 09:01:31;;;;;;;10.65;4.85;;;;;;;-140.81;100.00;62400.31;5027016;28;20041;-62
2024/03/04 09:03:58;;;;;;;13.05;4.80;;;;;;;-140.81;100.00;62400.31;5027367;28;20575;-63
2024/03/04 09:06:25;;;;;;;12.20;5.22;;;;;;;-140.81;100.00;62400.31;5026376;28;20049;-63
2024/03/04 09:08:51;;;;;;;10.75;4.55;;;;;;;-140.81;100.00;62400.31;5023689;28;20038;-64
2024/03/04 09:11:18;;;;;;;6.85;3.78;;;;;;;-140.81;100.00;62400.31;5037220;28;20131;-64
2024/03/04 09:13:44;;;;;;;14.30;5.80;;;;;;;-140.81;100.00;62400.31;5007478;28;20141;-62
2024/03/04 09:16:10;;;;;;;14.65;5.25;;;;;;;-140.81;100.00;62400.31;5022709;28;20052;-62
2024/03/04 09:18:40;;;;;;;8.70;5.53;;;;;;;-140.81;100.00;62400.31;5027942;28;20041;-63
2024/03/04 09:21:07;;;;;;;9.93;5.30;;;;;;;-140.81;100.00;62400.31;5027324;28;20037;-64
2024/03/04 09:23:33;;;;;;;9.23;4.80;;;;;;;-140.81;100.00;62400.31;5026026;28;20033;-64
2024/03/04 09:25:59;;;;;;;9.90;5.05;;;;;;;-140.81;100.00;62400.31;5026348;28;20049;-64
2024/03/04 09:28:25;;;;;;;8.93;4.75;;;;;;;-140.81;100.00;62400.31;5027022;28;20048;-62
2024/03/04 09:30:50;;;;;;;15.15;5.10;;;;;;;-140.81;100.00;62400.31;5027372;28;20501;-63
2024/03/04 09:33:19;;;;;;;9.32;4.97;;;;;;;-140.81;100.00;62400.31;5042171;28;20049;-63
2024/03/04 09:35:46;;;;;;;8.13;4.93;;;;;;;-140.81;100.00;62400.31;5026327;28;20637;-63
2024/03/04 09:38:14;;;;;;;9.93;4.70;;;;;;;-140.81;100.00;62400.31;5025941;28;20049;-64
2024/03/04 09:40:44;;;;;;;8.98;5.40;;;;;;;-140.81;100.00;62400.31;5009246;28;20496;-63
2024/03/04 09:43:12;;;;;;;12.68;5.28;;;;;;;-140.81;100.00;62400.31;5026832;28;20069;-63
2024/03/04 09:45:40;;;;;;;10.25;5.13;;;;;;;-140.81;100.00;62400.31;5037047;28;20087;-63
2024/03/04 09:48:08;;;;;;;13.20;4.78;;;;;;;-140.81;100.00;62400.31;5039015;28;20041;-63
2024/03/04 09:50:35;;;;;;;7.00;4.70;;;;;;;-140.81;100.00;62400.31;5044706;28;20056;-63
2024/03/04 09:53:01;;;;;;;13.93;5.60;;;;;;;-140.81;100.00;62400.31;5058513;28;20057;-63
2024/03/04 09:55:27;;;;;;;11.10;5.70;;;;;;;-140.81;100.00;62400.31;5026182;28;20152;-64
2024/03/04 09:57:54;;;;;;;12.50;5.40;;;;;;;-140.81;100.00;62400.31;5024838;28;20568;-63
2024/03/04 10:00:21;;;;;;;6.97;4.63;;;;;;;-140.81;100.00;62400.31;5024994;28;20041;-62
2024/03/04 10:02:47;;;;;;;18.15;5.30;;;;;;;-140.81;100.00;62400.31;5057775;28;20424;-62
2024/03/04 10:05:14;;;;;;;11.13;4.90;;;;;;;-140.81;100.00;62400.31;5025587;28;20132;-63
2024/03/04 10:07:41;;;;;;;14.63;5.25;;;;;;;-140.81;100.00;62400.31;5026249;28;20071;-64
2024/03/04 10:10:10;;;;;;;14.25;5.45;;;;;;;-140.81;100.00;62400.31;5026261;28;20033;-63
2024/03/04 10:12:36;;;;;;;14.18;5.63;;;;;;;-140.81;100.00;62400.31;5011351;28;20573;-63
2024/03/04 10:15:06;;;;;;;11.68;5.47;;;;;;;-140.81;100.00;62400.31;5006170;28;20041;-65
2024/03/04 10:17:34;;;;;;;12.60;5.22;;;;;;;-140.81;100.00;62400.31;5016990;28;20179;-65
2024/03/04 10:20:01;;;;;;;11.40;5.78;;;;;;;-140.81;100.00;62400.31;5025282;28;20053;-65
2024/03/04 10:22:35;;;;;;;11.30;5.65;;;;;;;-140.81;100.00;62400.31;5025945;28;20041;-63
2024/03/04 10:25:04;;;;;;;12.63;6.13;;;;;;;-140.81;100.00;62400.31;5057836;28;20124;-63
2024/03/04 10:27:31;;;;;;;11.45;6.03;;;;;;;-140.81;100.00;62400.31;5025833;28;20091;-63
2024/03/04 10:30:13;;;;;;;10.98;5.65;;;;;;;-140.81;100.00;62400.31;5026257;28;20041;-63
2024/03/04 10:32:45;;;;;;;17.33;6.55;;;;;;;-140.81;100.00;62400.31;5025033;28;20037;-64
2024/03/04 10:35:10;;;;;;;14.23;5.88;;;;;;;-140.81;100.00;62400.31;5026667;28;20072;-63
2024/03/04 10:37:36;;;;;;;13.63;5.60;;;;;;;-140.81;100.00;62400.31;5007902;28;20452;-62
2024/03/04 10:40:04;;;;;;;12.05;5.72;;;;;;;-140.81;100.00;62400.31;5026591;28;20102;-64
2024/03/04 10:42:30;;;;;;;11.77;6.32;;;;;;;-140.81;100.00;62400.31;5024629;28;20071;-63
2024/03/04 10:44:56;;;;;;;18.70;6.53;;;;;;;-140.81;100.00;62400.31;5057735;28;20041;-64
2024/03/04 10:47:23;;;;;;;14.43;6.47;;;;;;;-140.81;100.00;62400.31;5039769;28;20583;-63
2024/03/04 10:49:50;;;;;;;12.57;5.55;;;;;;;-140.81;100.00;62400.31;5040567;28;20052;-65
2024/03/04 10:52:19;;;;;;;13.40;6.05;;;;;;;-140.81;100.00;62400.31;5023960;28;20057;-64
2024/03/04 10:54:46;;;;;;;10.27;5.95;;;;;;;-140.81;100.00;62400.31;5024376;28;20049;-62
2024/03/04 10:57:28;;;;;;;12.70;5.65;;;;;;;-140.81;100.00;62400.31;5024341;28;20034;-63
2024/03/04 11:00:17;;;;;;;12.05;5.63;;;;;;;-140.81;100.00;62400.31;5025654;28;20061;-63
2024/03/04 11:02:58;;;;;;;;;;;;;;;-140.81;100.00;62400.31;5025129;28;20084;-62
2024/03/04 11:05:26;;;;;;;16.30;6.13;;;;;;;-140.81;100.00;62400.31;5025770;28;19949;-63
2024/03/04 11:07:57;;;;;;;12.93;5.57;;;;;;;-140.81;100.00;62400.31;5024893;28;20048;-64